METAR

METAR LDZA 160800Z 00000KT 5000 BR FEW004 13/12 Q1022 NOSIG =
METAR LDSP 160800Z 11003KT CAVOK 21/10 Q1021 NOSIG=
METAR LDDU 160800Z VRB02KT CAVOK 22/10 Q1021 NOSIG =
METAR LDZD 160800Z 13004KT 060V190 CAVOK 21/12 Q1021 NOSIG =
METAR LDPL 160800Z 11004KT CAVOK 19/12 Q1020 NOSIG=
METAR LDOS 160800Z 13003KT 110V180 6000 NSC 12/07 Q1023=
METAR LDSB 160800Z 11004KT 070V190 CAVOK 19/08 Q1022=
METAR LDRI 160800Z 11003KT 9999 SCT050 18/13 Q1020=

TAF

TAF AMD LDZA 160720Z 1607/1706 VRB02KT 4000 BR FEW005
                     TX16/1613Z TN10/1704Z
               BECMG 1608/1610 CAVOK
               BECMG 1621/1623 3000 BR
        PROB30 TEMPO 1703/1706 1500 BCFG=
TAF LDSP 160525Z 1606/1706 11006KT CAVOK
                 TX22/1613Z TN16/1704Z=
TAF LDDU 160525Z 1606/1706 09006KT CAVOK
                 TX22/1613Z TN16/1704Z=
TAF LDZD 160525Z 1606/1706 VRB02KT CAVOK
                 TX20/1613Z TN14/1705Z
           TEMPO 1606/1616 14006KT=
TAF LDPL 160525Z 1606/1706 VRB02KT 9999 BKN055
                 TX19/1613Z TN15/1705Z
           TEMPO 1610/1622 09006KT=
TAF LDOS 160525Z 1606/1706 11005KT CAVOK
                 TX20/1613Z TN07/1704Z=
TAF COR LDSB 160614Z 1607/1706 14010KT 9999 SCT030
                     TX22/1613Z TN15/1705Z
        PROB30 TEMPO 1702/1706 BKN010=
TAF LDRI 160525Z 1606/1706 VRB02KT 9999 SCT050
                 TX19/1613Z TN14/1704Z=

SIGMET

AIRMET

LDZO AIRMET 4 VALID 160739/160930 LDZA-
LDZO ZAGREB FIR SFC VIS 2000M BR OBS WI N4613 E01537 - N4511 E01926
- N4451 E01900 - N4403 E01550 - N4436 E01510 - N4539 E01435 - N4613
E01537 STNR WKN=

Remark

Ukoliko se brzina i smjer vjetra ne mogu odrediti zbog privremenog kvara sustava/indikatora,
informacija o vjetru u METAR izvješću bit će prikazana kao "/////KT".

 

Disclaimer

 

In case of temporary system/sensor failure, wind speed and direction data will be represented as "/////KT" in METAR report.

 

         

      Politika MET podataka